sensor_id;sensor_type;location;lat;lon;timestamp;P1;durP1;ratioP1;P2;durP2;ratioP2
17953;SDS011;9102;53.548;9.926;2023-08-21T00:00:41;10.18;;;4.32;;
17953;SDS011;9102;53.548;9.926;2023-08-21T00:03:08;14.38;;;4.35;;
17953;SDS011;9102;53.548;9.926;2023-08-21T00:05:35;13.63;;;5.00;;
17953;SDS011;9102;53.548;9.926;2023-08-21T00:08:03;8.70;;;3.55;;
17953;SDS011;9102;53.548;9.926;2023-08-21T00:10:30;12.00;;;4.38;;
17953;SDS011;9102;53.548;9.926;2023-08-21T00:12:58;18.13;;;6.03;;
17953;SDS011;9102;53.548;9.926;2023-08-21T00:15:24;18.65;;;5.10;;
17953;SDS011;9102;53.548;9.926;2023-08-21T00:17:51;15.35;;;5.50;;
17953;SDS011;9102;53.548;9.926;2023-08-21T00:20:18;15.27;;;5.00;;
17953;SDS011;9102;53.548;9.926;2023-08-21T00:22:46;11.70;;;4.40;;
17953;SDS011;9102;53.548;9.926;2023-08-21T00:25:14;14.15;;;4.95;;
17953;SDS011;9102;53.548;9.926;2023-08-21T00:27:41;11.85;;;4.95;;
17953;SDS011;9102;53.548;9.926;2023-08-21T00:30:08;18.65;;;5.20;;
17953;SDS011;9102;53.548;9.926;2023-08-21T00:32:36;17.25;;;4.85;;
17953;SDS011;9102;53.548;9.926;2023-08-21T00:35:03;10.57;;;4.78;;
17953;SDS011;9102;53.548;9.926;2023-08-21T00:37:30;14.55;;;5.10;;
17953;SDS011;9102;53.548;9.926;2023-08-21T00:39:57;23.33;;;6.50;;
17953;SDS011;9102;53.548;9.926;2023-08-21T00:42:25;19.02;;;5.38;;
17953;SDS011;9102;53.548;9.926;2023-08-21T00:44:52;19.33;;;5.43;;
17953;SDS011;9102;53.548;9.926;2023-08-21T00:47:19;12.80;;;4.78;;
17953;SDS011;9102;53.548;9.926;2023-08-21T00:49:46;19.00;;;5.15;;
17953;SDS011;9102;53.548;9.926;2023-08-21T00:52:12;14.50;;;5.65;;
17953;SDS011;9102;53.548;9.926;2023-08-21T00:54:41;16.63;;;5.13;;
17953;SDS011;9102;53.548;9.926;2023-08-21T00:57:09;15.18;;;5.45;;
17953;SDS011;9102;53.548;9.926;2023-08-21T00:59:45;14.75;;;5.70;;
17953;SDS011;9102;53.548;9.926;2023-08-21T01:02:12;14.75;;;5.45;;
17953;SDS011;9102;53.548;9.926;2023-08-21T01:04:40;14.60;;;5.45;;
17953;SDS011;9102;53.548;9.926;2023-08-21T01:07:06;11.57;;;4.97;;
17953;SDS011;9102;53.548;9.926;2023-08-21T01:09:36;17.92;;;5.50;;
17953;SDS011;9102;53.548;9.926;2023-08-21T01:12:09;15.73;;;5.35;;
17953;SDS011;9102;53.548;9.926;2023-08-21T01:14:47;19.08;;;5.45;;
17953;SDS011;9102;53.548;9.926;2023-08-21T01:17:25;16.45;;;5.15;;
17953;SDS011;9102;53.548;9.926;2023-08-21T01:19:54;15.13;;;5.72;;
17953;SDS011;9102;53.548;9.926;2023-08-21T01:22:24;13.48;;;5.10;;
17953;SDS011;9102;53.548;9.926;2023-08-21T01:24:54;16.17;;;5.30;;
17953;SDS011;9102;53.548;9.926;2023-08-21T01:27:21;14.80;;;5.80;;
17953;SDS011;9102;53.548;9.926;2023-08-21T01:29:48;13.70;;;5.43;;
17953;SDS011;9102;53.548;9.926;2023-08-21T01:32:17;15.05;;;5.13;;
17953;SDS011;9102;53.548;9.926;2023-08-21T01:38:13;17.02;;;5.93;;
17953;SDS011;9102;53.548;9.926;2023-08-21T01:40:41;18.80;;;7.13;;
17953;SDS011;9102;53.548;9.926;2023-08-21T01:43:08;18.40;;;6.80;;
17953;SDS011;9102;53.548;9.926;2023-08-21T01:45:35;16.33;;;6.32;;
17953;SDS011;9102;53.548;9.926;2023-08-21T01:48:02;17.90;;;7.10;;
17953;SDS011;9102;53.548;9.926;2023-08-21T01:50:29;20.25;;;6.60;;
17953;SDS011;9102;53.548;9.926;2023-08-21T01:52:55;17.98;;;6.63;;
17953;SDS011;9102;53.548;9.926;2023-08-21T01:55:22;15.20;;;5.95;;
17953;SDS011;9102;53.548;9.926;2023-08-21T01:57:51;14.60;;;6.45;;
17953;SDS011;9102;53.548;9.926;2023-08-21T02:00:18;13.70;;;5.72;;
17953;SDS011;9102;53.548;9.926;2023-08-21T02:02:44;15.43;;;6.57;;
17953;SDS011;9102;53.548;9.926;2023-08-21T02:05:11;16.73;;;6.70;;
17953;SDS011;9102;53.548;9.926;2023-08-21T02:07:38;15.77;;;6.88;;
17953;SDS011;9102;53.548;9.926;2023-08-21T02:10:05;15.57;;;6.60;;
17953;SDS011;9102;53.548;9.926;2023-08-21T02:12:33;16.63;;;7.10;;
17953;SDS011;9102;53.548;9.926;2023-08-21T02:15:01;18.33;;;6.50;;
17953;SDS011;9102;53.548;9.926;2023-08-21T02:17:29;17.45;;;7.00;;
17953;SDS011;9102;53.548;9.926;2023-08-21T02:19:57;18.40;;;6.57;;
17953;SDS011;9102;53.548;9.926;2023-08-21T02:22:24;14.90;;;7.20;;
17953;SDS011;9102;53.548;9.926;2023-08-21T02:24:51;14.48;;;6.95;;
17953;SDS011;9102;53.548;9.926;2023-08-21T02:27:17;14.55;;;6.18;;
17953;SDS011;9102;53.548;9.926;2023-08-21T02:29:44;18.08;;;6.97;;
17953;SDS011;9102;53.548;9.926;2023-08-21T02:32:12;13.93;;;6.07;;
17953;SDS011;9102;53.548;9.926;2023-08-21T02:34:39;15.43;;;6.25;;
17953;SDS011;9102;53.548;9.926;2023-08-21T02:37:06;12.38;;;5.97;;
17953;SDS011;9102;53.548;9.926;2023-08-21T02:39:33;15.55;;;6.75;;
17953;SDS011;9102;53.548;9.926;2023-08-21T02:41:59;17.25;;;6.10;;
17953;SDS011;9102;53.548;9.926;2023-08-21T02:44:26;12.55;;;5.60;;
17953;SDS011;9102;53.548;9.926;2023-08-21T02:46:53;13.85;;;5.78;;
17953;SDS011;9102;53.548;9.926;2023-08-21T02:49:22;15.32;;;5.55;;
17953;SDS011;9102;53.548;9.926;2023-08-21T02:51:49;16.98;;;5.90;;
17953;SDS011;9102;53.548;9.926;2023-08-21T02:54:16;14.85;;;5.47;;
17953;SDS011;9102;53.548;9.926;2023-08-21T02:56:43;16.05;;;5.57;;
17953;SDS011;9102;53.548;9.926;2023-08-21T02:59:10;14.45;;;6.05;;
17953;SDS011;9102;53.548;9.926;2023-08-21T03:01:36;20.80;;;6.30;;
17953;SDS011;9102;53.548;9.926;2023-08-21T03:04:03;14.73;;;5.75;;
17953;SDS011;9102;53.548;9.926;2023-08-21T03:06:32;15.25;;;5.88;;
17953;SDS011;9102;53.548;9.926;2023-08-21T03:08:58;15.07;;;6.55;;
17953;SDS011;9102;53.548;9.926;2023-08-21T03:11:25;16.83;;;5.93;;
17953;SDS011;9102;53.548;9.926;2023-08-21T03:13:52;11.20;;;5.05;;
17953;SDS011;9102;53.548;9.926;2023-08-21T03:16:19;13.60;;;5.43;;
17953;SDS011;9102;53.548;9.926;2023-08-21T03:18:55;11.93;;;5.40;;
17953;SDS011;9102;53.548;9.926;2023-08-21T03:21:23;11.50;;;5.25;;
17953;SDS011;9102;53.548;9.926;2023-08-21T03:23:53;11.70;;;4.82;;
17953;SDS011;9102;53.548;9.926;2023-08-21T03:26:22;11.02;;;5.20;;
17953;SDS011;9102;53.548;9.926;2023-08-21T03:28:49;12.07;;;4.60;;
17953;SDS011;9102;53.548;9.926;2023-08-21T03:31:16;13.50;;;5.07;;
17953;SDS011;9102;53.548;9.926;2023-08-21T03:33:43;14.77;;;5.80;;
17953;SDS011;9102;53.548;9.926;2023-08-21T03:36:10;14.68;;;7.15;;
17953;SDS011;9102;53.548;9.926;2023-08-21T03:38:36;16.88;;;7.75;;
17953;SDS011;9102;53.548;9.926;2023-08-21T03:41:05;16.80;;;7.43;;
17953;SDS011;9102;53.548;9.926;2023-08-21T03:43:31;12.48;;;6.93;;
17953;SDS011;9102;53.548;9.926;2023-08-21T03:45:58;17.92;;;7.15;;
17953;SDS011;9102;53.548;9.926;2023-08-21T03:48:25;16.58;;;6.75;;
17953;SDS011;9102;53.548;9.926;2023-08-21T03:50:52;15.50;;;6.93;;
17953;SDS011;9102;53.548;9.926;2023-08-21T03:53:19;13.25;;;7.13;;
17953;SDS011;9102;53.548;9.926;2023-08-21T03:55:45;12.90;;;6.68;;
17953;SDS011;9102;53.548;9.926;2023-08-21T03:58:14;18.88;;;7.13;;
17953;SDS011;9102;53.548;9.926;2023-08-21T04:00:41;16.38;;;6.90;;
17953;SDS011;9102;53.548;9.926;2023-08-21T04:03:07;12.18;;;6.47;;
17953;SDS011;9102;53.548;9.926;2023-08-21T04:05:34;17.92;;;7.03;;
17953;SDS011;9102;53.548;9.926;2023-08-21T04:08:01;14.48;;;6.65;;
17953;SDS011;9102;53.548;9.926;2023-08-21T04:10:28;12.88;;;6.68;;
17953;SDS011;9102;53.548;9.926;2023-08-21T04:12:55;14.18;;;6.80;;
17953;SDS011;9102;53.548;9.926;2023-08-21T04:15:23;12.55;;;6.80;;
17953;SDS011;9102;53.548;9.926;2023-08-21T04:17:51;17.20;;;7.63;;
17953;SDS011;9102;53.548;9.926;2023-08-21T04:20:18;14.38;;;6.72;;
17953;SDS011;9102;53.548;9.926;2023-08-21T04:22:46;14.65;;;6.80;;
17953;SDS011;9102;53.548;9.926;2023-08-21T04:25:13;14.40;;;6.25;;
17953;SDS011;9102;53.548;9.926;2023-08-21T04:27:40;11.93;;;6.05;;
17953;SDS011;9102;53.548;9.926;2023-08-21T04:30:07;16.08;;;6.15;;
17953;SDS011;9102;53.548;9.926;2023-08-21T04:32:36;14.38;;;6.45;;
17953;SDS011;9102;53.548;9.926;2023-08-21T04:35:03;14.60;;;6.28;;
17953;SDS011;9102;53.548;9.926;2023-08-21T04:37:31;22.58;;;7.22;;
17953;SDS011;9102;53.548;9.926;2023-08-21T04:39:57;13.30;;;5.72;;
17953;SDS011;9102;53.548;9.926;2023-08-21T04:42:24;13.38;;;5.80;;
17953;SDS011;9102;53.548;9.926;2023-08-21T04:44:51;14.35;;;6.20;;
17953;SDS011;9102;53.548;9.926;2023-08-21T04:47:18;13.90;;;6.43;;
17953;SDS011;9102;53.548;9.926;2023-08-21T04:49:48;14.20;;;6.03;;
17953;SDS011;9102;53.548;9.926;2023-08-21T04:52:15;12.77;;;6.93;;
17953;SDS011;9102;53.548;9.926;2023-08-21T04:54:41;12.02;;;6.20;;
17953;SDS011;9102;53.548;9.926;2023-08-21T04:57:08;13.32;;;6.00;;
17953;SDS011;9102;53.548;9.926;2023-08-21T04:59:35;14.15;;;6.50;;
17953;SDS011;9102;53.548;9.926;2023-08-21T05:02:02;12.85;;;5.70;;
17953;SDS011;9102;53.548;9.926;2023-08-21T05:04:29;12.80;;;6.43;;
17953;SDS011;9102;53.548;9.926;2023-08-21T05:06:57;13.57;;;6.00;;
17953;SDS011;9102;53.548;9.926;2023-08-21T05:09:24;15.05;;;6.32;;
17953;SDS011;9102;53.548;9.926;2023-08-21T05:11:51;13.23;;;6.70;;
17953;SDS011;9102;53.548;9.926;2023-08-21T05:14:18;13.40;;;5.93;;
17953;SDS011;9102;53.548;9.926;2023-08-21T05:16:45;12.88;;;5.82;;
17953;SDS011;9102;53.548;9.926;2023-08-21T05:19:12;14.75;;;6.07;;
17953;SDS011;9102;53.548;9.926;2023-08-21T05:21:39;15.68;;;5.70;;
17953;SDS011;9102;53.548;9.926;2023-08-21T05:24:07;10.45;;;5.43;;
17953;SDS011;9102;53.548;9.926;2023-08-21T05:26:35;11.63;;;5.80;;
17953;SDS011;9102;53.548;9.926;2023-08-21T05:29:01;16.35;;;6.20;;
17953;SDS011;9102;53.548;9.926;2023-08-21T05:31:28;9.88;;;5.47;;
17953;SDS011;9102;53.548;9.926;2023-08-21T05:33:55;12.68;;;5.20;;
17953;SDS011;9102;53.548;9.926;2023-08-21T05:36:22;10.90;;;5.45;;
17953;SDS011;9102;53.548;9.926;2023-08-21T05:38:49;15.70;;;6.38;;
17953;SDS011;9102;53.548;9.926;2023-08-21T05:41:17;13.95;;;7.35;;
17953;SDS011;9102;53.548;9.926;2023-08-21T05:43:44;12.98;;;5.85;;
17953;SDS011;9102;53.548;9.926;2023-08-21T05:46:12;18.05;;;6.90;;
17953;SDS011;9102;53.548;9.926;2023-08-21T05:48:39;10.70;;;6.10;;
17953;SDS011;9102;53.548;9.926;2023-08-21T05:51:06;12.65;;;6.10;;
17953;SDS011;9102;53.548;9.926;2023-08-21T05:53:33;16.90;;;6.38;;
17953;SDS011;9102;53.548;9.926;2023-08-21T05:55:59;13.10;;;5.63;;
17953;SDS011;9102;53.548;9.926;2023-08-21T05:58:28;10.32;;;6.25;;
17953;SDS011;9102;53.548;9.926;2023-08-21T06:00:56;12.07;;;5.90;;
17953;SDS011;9102;53.548;9.926;2023-08-21T06:03:23;13.10;;;6.38;;
17953;SDS011;9102;53.548;9.926;2023-08-21T06:05:50;12.60;;;5.93;;
17953;SDS011;9102;53.548;9.926;2023-08-21T06:08:17;12.10;;;6.40;;
17953;SDS011;9102;53.548;9.926;2023-08-21T06:10:44;21.65;;;6.60;;
17953;SDS011;9102;53.548;9.926;2023-08-21T06:13:11;14.85;;;6.32;;
17953;SDS011;9102;53.548;9.926;2023-08-21T06:15:39;17.45;;;6.63;;
17953;SDS011;9102;53.548;9.926;2023-08-21T06:18:10;14.85;;;6.28;;
17953;SDS011;9102;53.548;9.926;2023-08-21T06:20:36;12.45;;;6.22;;
17953;SDS011;9102;53.548;9.926;2023-08-21T06:23:04;18.60;;;6.28;;
17953;SDS011;9102;53.548;9.926;2023-08-21T06:25:32;18.77;;;6.25;;
17953;SDS011;9102;53.548;9.926;2023-08-21T06:28:01;21.92;;;7.07;;
17953;SDS011;9102;53.548;9.926;2023-08-21T06:30:28;15.73;;;6.10;;
17953;SDS011;9102;53.548;9.926;2023-08-21T06:32:57;13.00;;;6.15;;
17953;SDS011;9102;53.548;9.926;2023-08-21T06:35:23;13.68;;;6.32;;
17953;SDS011;9102;53.548;9.926;2023-08-21T06:37:50;13.63;;;5.43;;
17953;SDS011;9102;53.548;9.926;2023-08-21T06:40:17;12.57;;;5.35;;
17953;SDS011;9102;53.548;9.926;2023-08-21T06:42:47;18.42;;;5.07;;
17953;SDS011;9102;53.548;9.926;2023-08-21T06:45:15;13.00;;;5.15;;
17953;SDS011;9102;53.548;9.926;2023-08-21T06:47:44;14.52;;;4.43;;
17953;SDS011;9102;53.548;9.926;2023-08-21T06:50:12;13.77;;;5.15;;
17953;SDS011;9102;53.548;9.926;2023-08-21T06:52:39;15.35;;;5.45;;
17953;SDS011;9102;53.548;9.926;2023-08-21T06:55:06;14.90;;;5.82;;
17953;SDS011;9102;53.548;9.926;2023-08-21T06:57:33;15.90;;;5.22;;
17953;SDS011;9102;53.548;9.926;2023-08-21T07:00:01;12.00;;;4.20;;
17953;SDS011;9102;53.548;9.926;2023-08-21T07:02:29;14.65;;;4.18;;
17953;SDS011;9102;53.548;9.926;2023-08-21T07:04:56;10.82;;;3.80;;
17953;SDS011;9102;53.548;9.926;2023-08-21T07:07:24;12.32;;;3.63;;
17953;SDS011;9102;53.548;9.926;2023-08-21T07:09:51;12.57;;;3.10;;
17953;SDS011;9102;53.548;9.926;2023-08-21T07:12:17;9.90;;;2.40;;
17953;SDS011;9102;53.548;9.926;2023-08-21T07:14:44;10.13;;;2.88;;
17953;SDS011;9102;53.548;9.926;2023-08-21T07:17:11;8.57;;;2.38;;
17953;SDS011;9102;53.548;9.926;2023-08-21T07:19:38;7.90;;;2.30;;
17953;SDS011;9102;53.548;9.926;2023-08-21T07:22:04;12.32;;;2.90;;
17953;SDS011;9102;53.548;9.926;2023-08-21T07:24:33;7.10;;;2.15;;
17953;SDS011;9102;53.548;9.926;2023-08-21T07:26:59;10.35;;;2.35;;
17953;SDS011;9102;53.548;9.926;2023-08-21T07:29:26;8.55;;;2.10;;
17953;SDS011;9102;53.548;9.926;2023-08-21T07:31:53;8.60;;;2.38;;
17953;SDS011;9102;53.548;9.926;2023-08-21T07:34:20;12.63;;;3.88;;
17953;SDS011;9102;53.548;9.926;2023-08-21T07:36:47;8.00;;;2.13;;
17953;SDS011;9102;53.548;9.926;2023-08-21T07:39:13;6.95;;;1.88;;
17953;SDS011;9102;53.548;9.926;2023-08-21T07:41:41;6.90;;;2.47;;
17953;SDS011;9102;53.548;9.926;2023-08-21T07:44:08;9.55;;;3.22;;
17953;SDS011;9102;53.548;9.926;2023-08-21T07:46:37;8.35;;;2.42;;
17953;SDS011;9102;53.548;9.926;2023-08-21T07:49:04;12.27;;;2.50;;
17953;SDS011;9102;53.548;9.926;2023-08-21T07:51:32;9.82;;;1.70;;
17953;SDS011;9102;53.548;9.926;2023-08-21T07:53:58;9.68;;;2.17;;
17953;SDS011;9102;53.548;9.926;2023-08-21T07:56:25;7.70;;;1.80;;
17953;SDS011;9102;53.548;9.926;2023-08-21T07:58:56;13.23;;;2.28;;
17953;SDS011;9102;53.548;9.926;2023-08-21T08:01:22;7.28;;;1.95;;
17953;SDS011;9102;53.548;9.926;2023-08-21T08:03:49;7.30;;;1.50;;
17953;SDS011;9102;53.548;9.926;2023-08-21T08:06:16;10.38;;;2.33;;
17953;SDS011;9102;53.548;9.926;2023-08-21T08:08:43;8.98;;;2.15;;
17953;SDS011;9102;53.548;9.926;2023-08-21T08:11:10;11.02;;;2.45;;
17953;SDS011;9102;53.548;9.926;2023-08-21T08:13:39;5.32;;;1.75;;
17953;SDS011;9102;53.548;9.926;2023-08-21T08:16:11;6.43;;;1.45;;
17953;SDS011;9102;53.548;9.926;2023-08-21T08:18:37;7.68;;;2.40;;
17953;SDS011;9102;53.548;9.926;2023-08-21T08:21:04;9.82;;;2.85;;
17953;SDS011;9102;53.548;9.926;2023-08-21T08:23:34;4.80;;;1.50;;
17953;SDS011;9102;53.548;9.926;2023-08-21T08:26:02;6.85;;;1.50;;
17953;SDS011;9102;53.548;9.926;2023-08-21T08:28:29;12.52;;;2.05;;
17953;SDS011;9102;53.548;9.926;2023-08-21T08:30:56;6.85;;;1.60;;
17953;SDS011;9102;53.548;9.926;2023-08-21T08:33:25;7.57;;;1.77;;
17953;SDS011;9102;53.548;9.926;2023-08-21T08:35:51;6.07;;;1.50;;
17953;SDS011;9102;53.548;9.926;2023-08-21T08:38:18;5.30;;;1.60;;
17953;SDS011;9102;53.548;9.926;2023-08-21T08:40:46;6.13;;;1.27;;
17953;SDS011;9102;53.548;9.926;2023-08-21T08:43:13;4.10;;;1.17;;
17953;SDS011;9102;53.548;9.926;2023-08-21T08:45:40;8.43;;;1.80;;
17953;SDS011;9102;53.548;9.926;2023-08-21T08:48:07;4.85;;;1.30;;
17953;SDS011;9102;53.548;9.926;2023-08-21T08:50:36;5.80;;;2.00;;
17953;SDS011;9102;53.548;9.926;2023-08-21T08:53:04;5.43;;;1.20;;
17953;SDS011;9102;53.548;9.926;2023-08-21T08:55:32;4.10;;;1.20;;
17953;SDS011;9102;53.548;9.926;2023-08-21T08:57:59;6.75;;;1.20;;
17953;SDS011;9102;53.548;9.926;2023-08-21T09:00:30;6.45;;;1.00;;
17953;SDS011;9102;53.548;9.926;2023-08-21T09:02:57;5.45;;;1.13;;
17953;SDS011;9102;53.548;9.926;2023-08-21T09:05:24;4.00;;;1.05;;
17953;SDS011;9102;53.548;9.926;2023-08-21T09:08:03;6.28;;;1.48;;
17953;SDS011;9102;53.548;9.926;2023-08-21T09:10:35;4.30;;;1.55;;
17953;SDS011;9102;53.548;9.926;2023-08-21T09:13:08;9.82;;;4.55;;
17953;SDS011;9102;53.548;9.926;2023-08-21T09:15:35;4.53;;;1.27;;
17953;SDS011;9102;53.548;9.926;2023-08-21T09:18:03;4.75;;;0.80;;
17953;SDS011;9102;53.548;9.926;2023-08-21T09:20:34;3.67;;;1.05;;
17953;SDS011;9102;53.548;9.926;2023-08-21T09:23:07;4.85;;;1.02;;
17953;SDS011;9102;53.548;9.926;2023-08-21T09:25:34;4.10;;;1.15;;
17953;SDS011;9102;53.548;9.926;2023-08-21T09:28:03;4.38;;;1.02;;
17953;SDS011;9102;53.548;9.926;2023-08-21T09:30:42;5.32;;;0.90;;
17953;SDS011;9102;53.548;9.926;2023-08-21T09:33:11;4.45;;;1.05;;
17953;SDS011;9102;53.548;9.926;2023-08-21T09:35:37;3.80;;;1.10;;
17953;SDS011;9102;53.548;9.926;2023-08-21T09:38:08;3.78;;;1.23;;
17953;SDS011;9102;53.548;9.926;2023-08-21T09:40:38;5.32;;;1.13;;
17953;SDS011;9102;53.548;9.926;2023-08-21T09:43:07;4.43;;;1.30;;
17953;SDS011;9102;53.548;9.926;2023-08-21T09:45:37;5.97;;;1.55;;
17953;SDS011;9102;53.548;9.926;2023-08-21T09:48:04;3.92;;;1.08;;
17953;SDS011;9102;53.548;9.926;2023-08-21T09:50:33;4.93;;;1.00;;
17953;SDS011;9102;53.548;9.926;2023-08-21T09:53:01;3.25;;;1.70;;
17953;SDS011;9102;53.548;9.926;2023-08-21T09:55:30;8.50;;;1.70;;
17953;SDS011;9102;53.548;9.926;2023-08-21T09:57:59;4.88;;;1.45;;
17953;SDS011;9102;53.548;9.926;2023-08-21T10:00:28;2.92;;;0.90;;
17953;SDS011;9102;53.548;9.926;2023-08-21T10:02:57;3.17;;;1.00;;
17953;SDS011;9102;53.548;9.926;2023-08-21T10:05:27;5.28;;;1.20;;
17953;SDS011;9102;53.548;9.926;2023-08-21T10:07:55;6.25;;;1.35;;
17953;SDS011;9102;53.548;9.926;2023-08-21T10:10:22;3.45;;;1.10;;
17953;SDS011;9102;53.548;9.926;2023-08-21T10:12:51;5.43;;;1.35;;
17953;SDS011;9102;53.548;9.926;2023-08-21T10:15:17;4.20;;;1.08;;
17953;SDS011;9102;53.548;9.926;2023-08-21T10:17:44;5.22;;;0.98;;
17953;SDS011;9102;53.548;9.926;2023-08-21T10:20:11;4.05;;;1.15;;
17953;SDS011;9102;53.548;9.926;2023-08-21T10:22:38;3.65;;;0.93;;
17953;SDS011;9102;53.548;9.926;2023-08-21T10:25:15;3.17;;;0.98;;
17953;SDS011;9102;53.548;9.926;2023-08-21T10:27:44;7.82;;;1.40;;
17953;SDS011;9102;53.548;9.926;2023-08-21T10:30:14;6.32;;;1.52;;
17953;SDS011;9102;53.548;9.926;2023-08-21T10:32:46;6.68;;;1.50;;
17953;SDS011;9102;53.548;9.926;2023-08-21T10:35:13;6.32;;;0.93;;
17953;SDS011;9102;53.548;9.926;2023-08-21T10:40:34;2.05;;;0.75;;
17953;SDS011;9102;53.548;9.926;2023-08-21T10:43:02;5.28;;;1.40;;
17953;SDS011;9102;53.548;9.926;2023-08-21T10:45:30;6.70;;;1.98;;
17953;SDS011;9102;53.548;9.926;2023-08-21T10:47:57;3.08;;;1.60;;
17953;SDS011;9102;53.548;9.926;2023-08-21T10:50:25;5.88;;;1.63;;
17953;SDS011;9102;53.548;9.926;2023-08-21T10:52:52;4.10;;;1.25;;
17953;SDS011;9102;53.548;9.926;2023-08-21T10:55:19;3.25;;;1.30;;
17953;SDS011;9102;53.548;9.926;2023-08-21T10:57:47;4.80;;;1.48;;
17953;SDS011;9102;53.548;9.926;2023-08-21T11:00:15;4.90;;;1.20;;
17953;SDS011;9102;53.548;9.926;2023-08-21T11:02:45;3.90;;;1.10;;
17953;SDS011;9102;53.548;9.926;2023-08-21T11:05:14;3.63;;;1.02;;
17953;SDS011;9102;53.548;9.926;2023-08-21T11:07:42;3.75;;;0.88;;
17953;SDS011;9102;53.548;9.926;2023-08-21T11:10:10;2.42;;;0.95;;
17953;SDS011;9102;53.548;9.926;2023-08-21T11:12:47;3.15;;;1.23;;
17953;SDS011;9102;53.548;9.926;2023-08-21T11:15:15;6.40;;;1.00;;
17953;SDS011;9102;53.548;9.926;2023-08-21T11:17:42;3.70;;;0.80;;
17953;SDS011;9102;53.548;9.926;2023-08-21T11:20:17;3.75;;;1.17;;
17953;SDS011;9102;53.548;9.926;2023-08-21T11:22:45;3.55;;;0.95;;
17953;SDS011;9102;53.548;9.926;2023-08-21T11:25:11;4.00;;;1.00;;
17953;SDS011;9102;53.548;9.926;2023-08-21T11:27:40;4.70;;;1.10;;
17953;SDS011;9102;53.548;9.926;2023-08-21T11:30:07;3.22;;;0.98;;
17953;SDS011;9102;53.548;9.926;2023-08-21T11:32:37;5.63;;;1.00;;
17953;SDS011;9102;53.548;9.926;2023-08-21T11:35:04;3.60;;;0.95;;
17953;SDS011;9102;53.548;9.926;2023-08-21T11:37:33;3.72;;;0.90;;
17953;SDS011;9102;53.548;9.926;2023-08-21T11:40:00;2.97;;;0.93;;
17953;SDS011;9102;53.548;9.926;2023-08-21T11:42:34;3.38;;;1.13;;
17953;SDS011;9102;53.548;9.926;2023-08-21T11:45:01;5.70;;;1.17;;
17953;SDS011;9102;53.548;9.926;2023-08-21T11:47:32;6.13;;;1.35;;
17953;SDS011;9102;53.548;9.926;2023-08-21T11:50:02;5.50;;;1.27;;
17953;SDS011;9102;53.548;9.926;2023-08-21T11:52:30;7.15;;;3.30;;
17953;SDS011;9102;53.548;9.926;2023-08-21T11:54:58;5.53;;;1.13;;
17953;SDS011;9102;53.548;9.926;2023-08-21T11:57:25;3.22;;;0.80;;
17953;SDS011;9102;53.548;9.926;2023-08-21T11:59:55;4.57;;;1.10;;
17953;SDS011;9102;53.548;9.926;2023-08-21T12:02:22;3.42;;;0.90;;
17953;SDS011;9102;53.548;9.926;2023-08-21T12:04:53;6.63;;;1.00;;
17953;SDS011;9102;53.548;9.926;2023-08-21T12:07:20;3.08;;;0.80;;
17953;SDS011;9102;53.548;9.926;2023-08-21T12:09:47;3.75;;;1.10;;
17953;SDS011;9102;53.548;9.926;2023-08-21T12:12:16;5.38;;;1.25;;
17953;SDS011;9102;53.548;9.926;2023-08-21T12:18:05;4.72;;;1.00;;
17953;SDS011;9102;53.548;9.926;2023-08-21T12:20:32;5.28;;;0.88;;
17953;SDS011;9102;53.548;9.926;2023-08-21T12:22:59;5.43;;;1.10;;
17953;SDS011;9102;53.548;9.926;2023-08-21T12:25:25;2.85;;;0.93;;
17953;SDS011;9102;53.548;9.926;2023-08-21T12:27:58;3.97;;;0.95;;
17953;SDS011;9102;53.548;9.926;2023-08-21T12:30:25;6.53;;;1.05;;
17953;SDS011;9102;53.548;9.926;2023-08-21T12:32:52;6.35;;;1.20;;
17953;SDS011;9102;53.548;9.926;2023-08-21T12:35:18;2.88;;;1.00;;
17953;SDS011;9102;53.548;9.926;2023-08-21T12:37:45;2.55;;;1.10;;
17953;SDS011;9102;53.548;9.926;2023-08-21T12:40:12;2.67;;;0.90;;
17953;SDS011;9102;53.548;9.926;2023-08-21T12:42:39;4.60;;;1.20;;
17953;SDS011;9102;53.548;9.926;2023-08-21T12:45:10;2.30;;;0.88;;
17953;SDS011;9102;53.548;9.926;2023-08-21T12:47:37;4.38;;;1.10;;
17953;SDS011;9102;53.548;9.926;2023-08-21T12:50:04;3.88;;;0.93;;
17953;SDS011;9102;53.548;9.926;2023-08-21T12:52:32;5.75;;;0.90;;
17953;SDS011;9102;53.548;9.926;2023-08-21T12:54:59;4.40;;;1.10;;
17953;SDS011;9102;53.548;9.926;2023-08-21T12:57:28;3.13;;;1.00;;
17953;SDS011;9102;53.548;9.926;2023-08-21T12:59:55;3.13;;;1.00;;
17953;SDS011;9102;53.548;9.926;2023-08-21T13:02:23;3.05;;;1.08;;
17953;SDS011;9102;53.548;9.926;2023-08-21T13:04:52;2.75;;;0.70;;
17953;SDS011;9102;53.548;9.926;2023-08-21T13:07:19;3.35;;;1.15;;
17953;SDS011;9102;53.548;9.926;2023-08-21T13:09:45;2.35;;;0.80;;
17953;SDS011;9102;53.548;9.926;2023-08-21T13:12:12;2.40;;;0.77;;
17953;SDS011;9102;53.548;9.926;2023-08-21T13:14:42;1.70;;;0.80;;
17953;SDS011;9102;53.548;9.926;2023-08-21T13:17:08;6.70;;;1.00;;
17953;SDS011;9102;53.548;9.926;2023-08-21T13:19:37;4.10;;;0.90;;
17953;SDS011;9102;53.548;9.926;2023-08-21T13:22:06;4.20;;;0.80;;
17953;SDS011;9102;53.548;9.926;2023-08-21T13:24:32;1.38;;;0.70;;
17953;SDS011;9102;53.548;9.926;2023-08-21T13:26:59;3.10;;;0.80;;
17953;SDS011;9102;53.548;9.926;2023-08-21T13:29:28;3.97;;;1.00;;
17953;SDS011;9102;53.548;9.926;2023-08-21T13:31:58;3.40;;;0.98;;
17953;SDS011;9102;53.548;9.926;2023-08-21T13:34:25;4.47;;;1.00;;
17953;SDS011;9102;53.548;9.926;2023-08-21T13:36:53;4.47;;;0.90;;
17953;SDS011;9102;53.548;9.926;2023-08-21T13:39:21;1.95;;;0.68;;
17953;SDS011;9102;53.548;9.926;2023-08-21T13:41:48;2.08;;;0.80;;
17953;SDS011;9102;53.548;9.926;2023-08-21T13:44:15;4.03;;;1.00;;
17953;SDS011;9102;53.548;9.926;2023-08-21T13:46:42;3.65;;;1.10;;
17953;SDS011;9102;53.548;9.926;2023-08-21T13:49:09;7.57;;;1.38;;
17953;SDS011;9102;53.548;9.926;2023-08-21T13:51:36;4.72;;;0.93;;
17953;SDS011;9102;53.548;9.926;2023-08-21T13:54:04;4.65;;;1.23;;
17953;SDS011;9102;53.548;9.926;2023-08-21T13:56:31;3.20;;;1.00;;
17953;SDS011;9102;53.548;9.926;2023-08-21T13:58:58;4.43;;;1.20;;
17953;SDS011;9102;53.548;9.926;2023-08-21T14:01:24;4.05;;;1.08;;
17953;SDS011;9102;53.548;9.926;2023-08-21T14:03:51;2.85;;;0.68;;
17953;SDS011;9102;53.548;9.926;2023-08-21T14:06:18;3.55;;;0.93;;
17953;SDS011;9102;53.548;9.926;2023-08-21T14:08:45;4.18;;;0.85;;
17953;SDS011;9102;53.548;9.926;2023-08-21T14:11:13;5.60;;;1.35;;
17953;SDS011;9102;53.548;9.926;2023-08-21T14:13:40;2.08;;;0.70;;
17953;SDS011;9102;53.548;9.926;2023-08-21T14:16:06;3.85;;;0.80;;
17953;SDS011;9102;53.548;9.926;2023-08-21T14:18:33;4.07;;;1.10;;
17953;SDS011;9102;53.548;9.926;2023-08-21T14:21:00;3.63;;;0.80;;
17953;SDS011;9102;53.548;9.926;2023-08-21T14:23:27;3.35;;;1.33;;
17953;SDS011;9102;53.548;9.926;2023-08-21T14:25:54;3.70;;;1.10;;
17953;SDS011;9102;53.548;9.926;2023-08-21T14:28:22;5.20;;;0.95;;
17953;SDS011;9102;53.548;9.926;2023-08-21T14:30:56;1.65;;;0.82;;
17953;SDS011;9102;53.548;9.926;2023-08-21T14:33:24;2.97;;;1.30;;
17953;SDS011;9102;53.548;9.926;2023-08-21T14:35:51;1.83;;;1.00;;
17953;SDS011;9102;53.548;9.926;2023-08-21T14:38:17;3.58;;;1.20;;
17953;SDS011;9102;53.548;9.926;2023-08-21T14:40:44;3.63;;;1.00;;
17953;SDS011;9102;53.548;9.926;2023-08-21T14:43:11;2.33;;;1.08;;
17953;SDS011;9102;53.548;9.926;2023-08-21T14:45:39;4.72;;;1.10;;
17953;SDS011;9102;53.548;9.926;2023-08-21T14:48:06;1.58;;;1.10;;
17953;SDS011;9102;53.548;9.926;2023-08-21T14:50:33;4.93;;;1.30;;
17953;SDS011;9102;53.548;9.926;2023-08-21T14:52:59;7.88;;;1.40;;
17953;SDS011;9102;53.548;9.926;2023-08-21T14:55:26;3.15;;;1.13;;
17953;SDS011;9102;53.548;9.926;2023-08-21T14:57:53;4.35;;;1.67;;
17953;SDS011;9102;53.548;9.926;2023-08-21T15:00:20;2.85;;;1.38;;
17953;SDS011;9102;53.548;9.926;2023-08-21T15:02:48;4.30;;;1.00;;
17953;SDS011;9102;53.548;9.926;2023-08-21T15:05:15;2.10;;;0.98;;
17953;SDS011;9102;53.548;9.926;2023-08-21T15:07:42;4.45;;;1.10;;